Terminal Aerodrome Forecast
Issued by NWS

Home | Current Version | Previous Version | Text Only | Print | Product List | Glossary On
Versions: 1 2 3 4 5 6 7 8 9 10 11 12 13 14 15 16 17 18 19 20 21
000
FTUS44 KBMX 240938 AAA
TAFMGM
TAF AMD
KMGM 240938Z 2410/2506 00000KT 1/4SM FG VV002
     FM241300 00000KT 3SM BR BKN005
     FM241400 VRB03KT P6SM SCT020
     FM241700 33004KT P6SM VCTS BKN035CB=

USA.gov is the U.S. government's official web portal to all federal, state and local government web resources and services.